sensor_id;sensor_type;location;lat;lon;timestamp;P1;durP1;ratioP1;P2;durP2;ratioP2
23617;SDS011;18207;32.078;34.818;2022-11-20T00:01:43;2.63;;;2.42;;
23617;SDS011;18207;32.078;34.818;2022-11-20T00:04:13;2.55;;;2.35;;
23617;SDS011;18207;32.078;34.818;2022-11-20T00:06:44;2.97;;;2.60;;
23617;SDS011;18207;32.078;34.818;2022-11-20T00:09:15;2.47;;;2.28;;
23617;SDS011;18207;32.078;34.818;2022-11-20T00:11:46;2.47;;;2.20;;
23617;SDS011;18207;32.078;34.818;2022-11-20T00:14:17;2.67;;;2.28;;
23617;SDS011;18207;32.078;34.818;2022-11-20T00:16:49;2.60;;;2.40;;
23617;SDS011;18207;32.078;34.818;2022-11-20T00:19:20;2.30;;;2.10;;
23617;SDS011;18207;32.078;34.818;2022-11-20T00:21:50;3.40;;;2.67;;
23617;SDS011;18207;32.078;34.818;2022-11-20T00:24:22;3.03;;;2.60;;
23617;SDS011;18207;32.078;34.818;2022-11-20T00:26:52;2.70;;;2.50;;
23617;SDS011;18207;32.078;34.818;2022-11-20T00:29:23;2.70;;;2.50;;
23617;SDS011;18207;32.078;34.818;2022-11-20T00:31:56;2.78;;;2.40;;
23617;SDS011;18207;32.078;34.818;2022-11-20T00:34:26;2.85;;;2.60;;
23617;SDS011;18207;32.078;34.818;2022-11-20T00:36:57;2.53;;;2.33;;
23617;SDS011;18207;32.078;34.818;2022-11-20T00:39:28;2.63;;;2.42;;
23617;SDS011;18207;32.078;34.818;2022-11-20T00:41:59;2.40;;;2.20;;
23617;SDS011;18207;32.078;34.818;2022-11-20T00:44:30;2.72;;;2.53;;
23617;SDS011;18207;32.078;34.818;2022-11-20T00:47:02;2.88;;;2.40;;
23617;SDS011;18207;32.078;34.818;2022-11-20T00:49:32;2.38;;;2.17;;
23617;SDS011;18207;32.078;34.818;2022-11-20T00:52:03;2.40;;;2.20;;
23617;SDS011;18207;32.078;34.818;2022-11-20T00:54:35;2.33;;;2.13;;
23617;SDS011;18207;32.078;34.818;2022-11-20T00:57:08;3.80;;;2.33;;
23617;SDS011;18207;32.078;34.818;2022-11-20T00:59:39;2.42;;;2.22;;
23617;SDS011;18207;32.078;34.818;2022-11-20T01:02:12;2.58;;;2.38;;
23617;SDS011;18207;32.078;34.818;2022-11-20T01:04:43;2.53;;;2.33;;
23617;SDS011;18207;32.078;34.818;2022-11-20T01:07:13;2.50;;;2.30;;
23617;SDS011;18207;32.078;34.818;2022-11-20T01:09:44;2.40;;;2.20;;
23617;SDS011;18207;32.078;34.818;2022-11-20T01:12:14;2.50;;;2.30;;
23617;SDS011;18207;32.078;34.818;2022-11-20T01:14:57;2.25;;;2.05;;
23617;SDS011;18207;32.078;34.818;2022-11-20T01:17:28;2.65;;;2.45;;
23617;SDS011;18207;32.078;34.818;2022-11-20T01:20:01;2.22;;;2.03;;
23617;SDS011;18207;32.078;34.818;2022-11-20T01:22:32;2.40;;;2.20;;
23617;SDS011;18207;32.078;34.818;2022-11-20T01:25:03;2.47;;;2.20;;
23617;SDS011;18207;32.078;34.818;2022-11-20T01:27:34;2.60;;;2.40;;
23617;SDS011;18207;32.078;34.818;2022-11-20T01:30:05;2.50;;;2.30;;
23617;SDS011;18207;32.078;34.818;2022-11-20T01:32:38;2.40;;;2.20;;
23617;SDS011;18207;32.078;34.818;2022-11-20T01:35:08;2.50;;;2.30;;
23617;SDS011;18207;32.078;34.818;2022-11-20T01:37:38;2.42;;;2.13;;
23617;SDS011;18207;32.078;34.818;2022-11-20T01:40:09;2.40;;;2.20;;
23617;SDS011;18207;32.078;34.818;2022-11-20T01:42:44;2.47;;;2.17;;
23617;SDS011;18207;32.078;34.818;2022-11-20T01:48:48;2.08;;;1.98;;
23617;SDS011;18207;32.078;34.818;2022-11-20T01:51:27;2.78;;;2.10;;
23617;SDS011;18207;32.078;34.818;2022-11-20T01:54:05;2.15;;;2.05;;
23617;SDS011;18207;32.078;34.818;2022-11-20T01:56:44;1.88;;;1.77;;
23617;SDS011;18207;32.078;34.818;2022-11-20T01:59:20;2.88;;;2.17;;
23617;SDS011;18207;32.078;34.818;2022-11-20T02:01:55;2.50;;;2.30;;
23617;SDS011;18207;32.078;34.818;2022-11-20T02:04:28;2.40;;;2.20;;
23617;SDS011;18207;32.078;34.818;2022-11-20T02:06:59;2.47;;;2.28;;
23617;SDS011;18207;32.078;34.818;2022-11-20T02:09:35;2.50;;;2.30;;
23617;SDS011;18207;32.078;34.818;2022-11-20T02:12:06;2.45;;;2.25;;
23617;SDS011;18207;32.078;34.818;2022-11-20T02:14:57;2.40;;;2.20;;
23617;SDS011;18207;32.078;34.818;2022-11-20T02:17:26;2.20;;;2.00;;
23617;SDS011;18207;32.078;34.818;2022-11-20T02:19:59;2.13;;;2.03;;
23617;SDS011;18207;32.078;34.818;2022-11-20T02:22:33;2.50;;;2.30;;
23617;SDS011;18207;32.078;34.818;2022-11-20T02:25:15;2.38;;;2.17;;
23617;SDS011;18207;32.078;34.818;2022-11-20T02:27:48;2.33;;;2.00;;
23617;SDS011;18207;32.078;34.818;2022-11-20T02:30:20;2.50;;;2.30;;
23617;SDS011;18207;32.078;34.818;2022-11-20T02:32:51;2.30;;;2.10;;
23617;SDS011;18207;32.078;34.818;2022-11-20T02:35:39;2.30;;;2.10;;
23617;SDS011;18207;32.078;34.818;2022-11-20T02:38:16;2.13;;;2.00;;
23617;SDS011;18207;32.078;34.818;2022-11-20T02:40:50;3.28;;;2.30;;
23617;SDS011;18207;32.078;34.818;2022-11-20T02:43:21;2.40;;;2.20;;
23617;SDS011;18207;32.078;34.818;2022-11-20T02:45:54;2.10;;;2.00;;
23617;SDS011;18207;32.078;34.818;2022-11-20T02:48:25;2.30;;;2.10;;
23617;SDS011;18207;32.078;34.818;2022-11-20T02:50:59;2.30;;;2.10;;
23617;SDS011;18207;32.078;34.818;2022-11-20T02:53:31;2.25;;;2.05;;
23617;SDS011;18207;32.078;34.818;2022-11-20T02:56:05;1.98;;;1.88;;
23617;SDS011;18207;32.078;34.818;2022-11-20T02:58:36;3.13;;;2.10;;
23617;SDS011;18207;32.078;34.818;2022-11-20T03:01:07;2.15;;;1.95;;
23617;SDS011;18207;32.078;34.818;2022-11-20T03:03:38;2.58;;;2.22;;
23617;SDS011;18207;32.078;34.818;2022-11-20T03:06:09;2.17;;;2.00;;
23617;SDS011;18207;32.078;34.818;2022-11-20T03:08:39;2.20;;;2.00;;
23617;SDS011;18207;32.078;34.818;2022-11-20T03:11:13;2.97;;;2.30;;
23617;SDS011;18207;32.078;34.818;2022-11-20T03:13:43;2.10;;;1.90;;
23617;SDS011;18207;32.078;34.818;2022-11-20T03:16:16;2.30;;;2.10;;
23617;SDS011;18207;32.078;34.818;2022-11-20T03:18:51;2.53;;;2.33;;
23617;SDS011;18207;32.078;34.818;2022-11-20T03:21:22;2.10;;;1.90;;
23617;SDS011;18207;32.078;34.818;2022-11-20T03:23:52;1.77;;;1.67;;
23617;SDS011;18207;32.078;34.818;2022-11-20T03:26:25;1.85;;;1.75;;
23617;SDS011;18207;32.078;34.818;2022-11-20T03:28:58;2.70;;;2.10;;
23617;SDS011;18207;32.078;34.818;2022-11-20T03:31:30;2.00;;;1.77;;
23617;SDS011;18207;32.078;34.818;2022-11-20T03:34:04;2.00;;;1.80;;
23617;SDS011;18207;32.078;34.818;2022-11-20T03:36:37;2.15;;;1.95;;
23617;SDS011;18207;32.078;34.818;2022-11-20T03:39:07;2.17;;;1.98;;
23617;SDS011;18207;32.078;34.818;2022-11-20T03:41:41;2.05;;;1.95;;
23617;SDS011;18207;32.078;34.818;2022-11-20T03:44:11;1.80;;;1.70;;
23617;SDS011;18207;32.078;34.818;2022-11-20T03:46:42;2.20;;;2.00;;
23617;SDS011;18207;32.078;34.818;2022-11-20T03:49:13;2.30;;;2.10;;
23617;SDS011;18207;32.078;34.818;2022-11-20T03:51:45;2.20;;;2.00;;
23617;SDS011;18207;32.078;34.818;2022-11-20T03:54:15;2.20;;;2.00;;
23617;SDS011;18207;32.078;34.818;2022-11-20T03:56:48;2.45;;;1.90;;
23617;SDS011;18207;32.078;34.818;2022-11-20T03:59:18;2.13;;;1.73;;
23617;SDS011;18207;32.078;34.818;2022-11-20T04:01:49;2.20;;;2.00;;
23617;SDS011;18207;32.078;34.818;2022-11-20T04:04:19;2.58;;;2.38;;
23617;SDS011;18207;32.078;34.818;2022-11-20T04:06:50;2.05;;;1.92;;
23617;SDS011;18207;32.078;34.818;2022-11-20T04:09:20;2.40;;;2.20;;
23617;SDS011;18207;32.078;34.818;2022-11-20T04:11:52;2.13;;;1.92;;
23617;SDS011;18207;32.078;34.818;2022-11-20T04:14:22;2.00;;;1.80;;
23617;SDS011;18207;32.078;34.818;2022-11-20T04:16:53;2.15;;;1.92;;
23617;SDS011;18207;32.078;34.818;2022-11-20T04:19:23;2.30;;;1.83;;
23617;SDS011;18207;32.078;34.818;2022-11-20T04:21:53;2.47;;;2.00;;
23617;SDS011;18207;32.078;34.818;2022-11-20T04:24:24;2.10;;;2.00;;
23617;SDS011;18207;32.078;34.818;2022-11-20T04:26:58;1.90;;;1.70;;
23617;SDS011;18207;32.078;34.818;2022-11-20T04:29:27;2.33;;;2.13;;
23617;SDS011;18207;32.078;34.818;2022-11-20T04:31:58;2.33;;;2.13;;
23617;SDS011;18207;32.078;34.818;2022-11-20T04:34:29;1.80;;;1.70;;
23617;SDS011;18207;32.078;34.818;2022-11-20T04:37:00;2.10;;;1.90;;
23617;SDS011;18207;32.078;34.818;2022-11-20T04:39:30;2.20;;;2.00;;
23617;SDS011;18207;32.078;34.818;2022-11-20T04:42:05;2.00;;;1.80;;
23617;SDS011;18207;32.078;34.818;2022-11-20T04:44:59;2.05;;;1.80;;
23617;SDS011;18207;32.078;34.818;2022-11-20T04:47:30;1.80;;;1.70;;
23617;SDS011;18207;32.078;34.818;2022-11-20T04:50:00;1.90;;;1.65;;
23617;SDS011;18207;32.078;34.818;2022-11-20T04:52:31;2.13;;;1.92;;
23617;SDS011;18207;32.078;34.818;2022-11-20T04:55:02;2.88;;;2.05;;
23617;SDS011;18207;32.078;34.818;2022-11-20T04:57:34;2.15;;;1.95;;
23617;SDS011;18207;32.078;34.818;2022-11-20T05:00:05;2.85;;;2.13;;
23617;SDS011;18207;32.078;34.818;2022-11-20T05:02:37;2.00;;;1.90;;
23617;SDS011;18207;32.078;34.818;2022-11-20T05:05:07;2.25;;;2.10;;
23617;SDS011;18207;32.078;34.818;2022-11-20T05:07:38;1.85;;;1.73;;
23617;SDS011;18207;32.078;34.818;2022-11-20T05:10:09;2.10;;;2.00;;
23617;SDS011;18207;32.078;34.818;2022-11-20T05:12:42;2.20;;;2.00;;
23617;SDS011;18207;32.078;34.818;2022-11-20T05:15:16;2.20;;;2.00;;
23617;SDS011;18207;32.078;34.818;2022-11-20T05:17:49;2.22;;;1.88;;
23617;SDS011;18207;32.078;34.818;2022-11-20T05:20:20;2.15;;;1.80;;
23617;SDS011;18207;32.078;34.818;2022-11-20T05:22:51;2.33;;;1.95;;
23617;SDS011;18207;32.078;34.818;2022-11-20T05:25:22;2.00;;;1.90;;
23617;SDS011;18207;32.078;34.818;2022-11-20T05:27:54;2.25;;;1.80;;
23617;SDS011;18207;32.078;34.818;2022-11-20T05:30:25;1.80;;;1.70;;
23617;SDS011;18207;32.078;34.818;2022-11-20T05:32:56;2.53;;;2.00;;
23617;SDS011;18207;32.078;34.818;2022-11-20T05:35:26;2.00;;;1.90;;
23617;SDS011;18207;32.078;34.818;2022-11-20T05:37:56;1.85;;;1.67;;
23617;SDS011;18207;32.078;34.818;2022-11-20T05:40:27;2.38;;;2.10;;
23617;SDS011;18207;32.078;34.818;2022-11-20T05:43:00;3.78;;;2.00;;
23617;SDS011;18207;32.078;34.818;2022-11-20T05:45:30;3.67;;;1.80;;
23617;SDS011;18207;32.078;34.818;2022-11-20T05:48:01;1.80;;;1.58;;
23617;SDS011;18207;32.078;34.818;2022-11-20T05:50:32;1.95;;;1.85;;
23617;SDS011;18207;32.078;34.818;2022-11-20T05:53:02;2.42;;;1.90;;
23617;SDS011;18207;32.078;34.818;2022-11-20T05:55:33;2.03;;;1.70;;
23617;SDS011;18207;32.078;34.818;2022-11-20T05:58:05;3.22;;;1.90;;
23617;SDS011;18207;32.078;34.818;2022-11-20T06:00:35;2.00;;;1.90;;
23617;SDS011;18207;32.078;34.818;2022-11-20T06:03:05;2.92;;;1.80;;
23617;SDS011;18207;32.078;34.818;2022-11-20T06:05:35;1.80;;;1.70;;
23617;SDS011;18207;32.078;34.818;2022-11-20T06:08:06;1.60;;;1.50;;
23617;SDS011;18207;32.078;34.818;2022-11-20T06:10:37;2.20;;;2.00;;
23617;SDS011;18207;32.078;34.818;2022-11-20T06:13:09;1.95;;;1.70;;
23617;SDS011;18207;32.078;34.818;2022-11-20T06:15:39;2.20;;;1.80;;
23617;SDS011;18207;32.078;34.818;2022-11-20T06:18:10;2.22;;;1.77;;
23617;SDS011;18207;32.078;34.818;2022-11-20T06:20:41;1.95;;;1.75;;
23617;SDS011;18207;32.078;34.818;2022-11-20T06:23:12;2.08;;;1.83;;
23617;SDS011;18207;32.078;34.818;2022-11-20T06:25:43;2.00;;;1.85;;
23617;SDS011;18207;32.078;34.818;2022-11-20T06:28:17;1.77;;;1.67;;
23617;SDS011;18207;32.078;34.818;2022-11-20T06:30:49;2.42;;;1.73;;
23617;SDS011;18207;32.078;34.818;2022-11-20T06:33:19;2.30;;;1.70;;
23617;SDS011;18207;32.078;34.818;2022-11-20T06:35:50;1.92;;;1.73;;
23617;SDS011;18207;32.078;34.818;2022-11-20T06:38:31;2.40;;;2.20;;
23617;SDS011;18207;32.078;34.818;2022-11-20T06:41:02;1.80;;;1.70;;
23617;SDS011;18207;32.078;34.818;2022-11-20T06:43:36;2.22;;;2.05;;
23617;SDS011;18207;32.078;34.818;2022-11-20T06:46:06;2.33;;;1.85;;
23617;SDS011;18207;32.078;34.818;2022-11-20T06:48:39;2.25;;;1.80;;
23617;SDS011;18207;32.078;34.818;2022-11-20T06:51:10;2.13;;;2.00;;
23617;SDS011;18207;32.078;34.818;2022-11-20T06:53:40;2.10;;;1.90;;
23617;SDS011;18207;32.078;34.818;2022-11-20T06:56:11;2.58;;;1.90;;
23617;SDS011;18207;32.078;34.818;2022-11-20T06:58:44;1.67;;;1.55;;
23617;SDS011;18207;32.078;34.818;2022-11-20T07:01:15;1.70;;;1.60;;
23617;SDS011;18207;32.078;34.818;2022-11-20T07:03:48;1.88;;;1.77;;
23617;SDS011;18207;32.078;34.818;2022-11-20T07:06:20;1.70;;;1.60;;
23617;SDS011;18207;32.078;34.818;2022-11-20T07:08:50;1.70;;;1.60;;
23617;SDS011;18207;32.078;34.818;2022-11-20T07:11:21;1.83;;;1.73;;
23617;SDS011;18207;32.078;34.818;2022-11-20T07:13:54;1.67;;;1.58;;
23617;SDS011;18207;32.078;34.818;2022-11-20T07:16:26;1.70;;;1.60;;
23617;SDS011;18207;32.078;34.818;2022-11-20T07:18:57;1.60;;;1.50;;
23617;SDS011;18207;32.078;34.818;2022-11-20T07:21:27;1.80;;;1.70;;
23617;SDS011;18207;32.078;34.818;2022-11-20T07:23:57;1.52;;;1.42;;
23617;SDS011;18207;32.078;34.818;2022-11-20T07:26:27;1.77;;;1.67;;
23617;SDS011;18207;32.078;34.818;2022-11-20T07:29:00;1.90;;;1.80;;
23617;SDS011;18207;32.078;34.818;2022-11-20T07:31:31;1.67;;;1.58;;
23617;SDS011;18207;32.078;34.818;2022-11-20T07:34:02;1.42;;;1.33;;
23617;SDS011;18207;32.078;34.818;2022-11-20T07:36:31;1.42;;;1.27;;
23617;SDS011;18207;32.078;34.818;2022-11-20T07:39:02;1.52;;;1.42;;
23617;SDS011;18207;32.078;34.818;2022-11-20T07:41:33;1.35;;;1.25;;
23617;SDS011;18207;32.078;34.818;2022-11-20T07:44:06;1.25;;;1.25;;
23617;SDS011;18207;32.078;34.818;2022-11-20T07:46:37;1.33;;;1.23;;
23617;SDS011;18207;32.078;34.818;2022-11-20T07:49:07;1.17;;;1.08;;
23617;SDS011;18207;32.078;34.818;2022-11-20T07:51:38;1.10;;;1.10;;
23617;SDS011;18207;32.078;34.818;2022-11-20T07:54:09;1.13;;;1.13;;
23617;SDS011;18207;32.078;34.818;2022-11-20T07:56:39;0.90;;;0.90;;
23617;SDS011;18207;32.078;34.818;2022-11-20T07:59:12;1.05;;;0.95;;
23617;SDS011;18207;32.078;34.818;2022-11-20T08:01:42;0.70;;;0.70;;
23617;SDS011;18207;32.078;34.818;2022-11-20T08:04:12;0.75;;;0.75;;
23617;SDS011;18207;32.078;34.818;2022-11-20T08:06:43;1.23;;;0.93;;
23617;SDS011;18207;32.078;34.818;2022-11-20T08:09:14;0.80;;;0.80;;
23617;SDS011;18207;32.078;34.818;2022-11-20T08:11:45;1.10;;;1.10;;
23617;SDS011;18207;32.078;34.818;2022-11-20T08:14:34;0.90;;;0.90;;
23617;SDS011;18207;32.078;34.818;2022-11-20T08:17:05;0.93;;;0.93;;
23617;SDS011;18207;32.078;34.818;2022-11-20T08:19:36;1.00;;;1.00;;
23617;SDS011;18207;32.078;34.818;2022-11-20T08:22:06;0.90;;;0.90;;
23617;SDS011;18207;32.078;34.818;2022-11-20T08:24:37;1.08;;;0.98;;
23617;SDS011;18207;32.078;34.818;2022-11-20T08:27:06;0.90;;;0.90;;
23617;SDS011;18207;32.078;34.818;2022-11-20T08:29:40;1.10;;;1.10;;
23617;SDS011;18207;32.078;34.818;2022-11-20T08:32:10;1.00;;;0.90;;
23617;SDS011;18207;32.078;34.818;2022-11-20T08:34:40;1.40;;;1.30;;
23617;SDS011;18207;32.078;34.818;2022-11-20T08:37:11;2.67;;;1.35;;
23617;SDS011;18207;32.078;34.818;2022-11-20T08:39:50;1.20;;;1.10;;
23617;SDS011;18207;32.078;34.818;2022-11-20T08:42:20;1.23;;;1.20;;
23617;SDS011;18207;32.078;34.818;2022-11-20T08:44:53;1.40;;;1.30;;
23617;SDS011;18207;32.078;34.818;2022-11-20T08:47:27;1.10;;;0.98;;
23617;SDS011;18207;32.078;34.818;2022-11-20T08:49:58;1.10;;;1.10;;
23617;SDS011;18207;32.078;34.818;2022-11-20T08:52:29;1.20;;;1.10;;
23617;SDS011;18207;32.078;34.818;2022-11-20T08:55:05;0.90;;;0.90;;
23617;SDS011;18207;32.078;34.818;2022-11-20T08:57:37;1.33;;;1.08;;
23617;SDS011;18207;32.078;34.818;2022-11-20T09:00:18;1.60;;;1.10;;
23617;SDS011;18207;32.078;34.818;2022-11-20T09:02:50;1.10;;;1.05;;
23617;SDS011;18207;32.078;34.818;2022-11-20T09:05:23;1.30;;;1.10;;
23617;SDS011;18207;32.078;34.818;2022-11-20T09:07:56;1.08;;;1.05;;
23617;SDS011;18207;32.078;34.818;2022-11-20T09:10:29;1.00;;;1.00;;
23617;SDS011;18207;32.078;34.818;2022-11-20T09:13:01;1.52;;;1.20;;
23617;SDS011;18207;32.078;34.818;2022-11-20T09:15:34;0.98;;;0.98;;
23617;SDS011;18207;32.078;34.818;2022-11-20T09:18:11;0.80;;;0.80;;
23617;SDS011;18207;32.078;34.818;2022-11-20T09:20:45;0.90;;;0.90;;
23617;SDS011;18207;32.078;34.818;2022-11-20T09:23:16;1.08;;;1.08;;
23617;SDS011;18207;32.078;34.818;2022-11-20T09:25:47;1.77;;;1.10;;
23617;SDS011;18207;32.078;34.818;2022-11-20T09:28:17;1.30;;;1.20;;
23617;SDS011;18207;32.078;34.818;2022-11-20T09:30:50;1.20;;;1.20;;
23617;SDS011;18207;32.078;34.818;2022-11-20T09:33:20;1.10;;;1.10;;
23617;SDS011;18207;32.078;34.818;2022-11-20T09:35:50;1.70;;;1.60;;
23617;SDS011;18207;32.078;34.818;2022-11-20T09:38:20;1.13;;;1.13;;
23617;SDS011;18207;32.078;34.818;2022-11-20T09:40:54;1.15;;;1.15;;
23617;SDS011;18207;32.078;34.818;2022-11-20T09:43:39;1.23;;;1.13;;
23617;SDS011;18207;32.078;34.818;2022-11-20T09:46:25;1.30;;;1.30;;
23617;SDS011;18207;32.078;34.818;2022-11-20T09:49:17;1.30;;;1.25;;
23617;SDS011;18207;32.078;34.818;2022-11-20T09:51:59;1.42;;;1.33;;
23617;SDS011;18207;32.078;34.818;2022-11-20T09:54:45;1.77;;;1.50;;
23617;SDS011;18207;32.078;34.818;2022-11-20T09:57:17;1.45;;;1.35;;
23617;SDS011;18207;32.078;34.818;2022-11-20T09:59:54;1.92;;;1.50;;
23617;SDS011;18207;32.078;34.818;2022-11-20T10:02:39;1.45;;;1.35;;
23617;SDS011;18207;32.078;34.818;2022-11-20T10:05:18;1.17;;;1.17;;
23617;SDS011;18207;32.078;34.818;2022-11-20T10:08:07;1.55;;;1.45;;
23617;SDS011;18207;32.078;34.818;2022-11-20T10:10:49;1.65;;;1.52;;
23617;SDS011;18207;32.078;34.818;2022-11-20T10:13:36;1.60;;;1.50;;
23617;SDS011;18207;32.078;34.818;2022-11-20T10:16:20;1.38;;;1.27;;
23617;SDS011;18207;32.078;34.818;2022-11-20T10:19:21;1.45;;;1.30;;
23617;SDS011;18207;32.078;34.818;2022-11-20T10:22:13;1.40;;;1.30;;
23617;SDS011;18207;32.078;34.818;2022-11-20T10:25:02;1.77;;;1.30;;
23617;SDS011;18207;32.078;34.818;2022-11-20T10:30:59;1.38;;;1.25;;
23617;SDS011;18207;32.078;34.818;2022-11-20T10:33:34;2.15;;;1.67;;
23617;SDS011;18207;32.078;34.818;2022-11-20T10:36:33;1.50;;;1.40;;
23617;SDS011;18207;32.078;34.818;2022-11-20T10:39:15;1.92;;;1.50;;
23617;SDS011;18207;32.078;34.818;2022-11-20T10:41:53;2.88;;;1.50;;
23617;SDS011;18207;32.078;34.818;2022-11-20T10:47:32;1.92;;;1.70;;
23617;SDS011;18207;32.078;34.818;2022-11-20T10:50:08;2.20;;;1.50;;
23617;SDS011;18207;32.078;34.818;2022-11-20T10:52:52;3.22;;;1.70;;
23617;SDS011;18207;32.078;34.818;2022-11-20T10:55:39;4.25;;;1.92;;
23617;SDS011;18207;32.078;34.818;2022-11-20T10:58:20;3.67;;;1.65;;
23617;SDS011;18207;32.078;34.818;2022-11-20T11:01:03;2.22;;;1.60;;
23617;SDS011;18207;32.078;34.818;2022-11-20T11:03:34;2.65;;;1.58;;
23617;SDS011;18207;32.078;34.818;2022-11-20T11:06:07;2.20;;;1.45;;
23617;SDS011;18207;32.078;34.818;2022-11-20T11:08:50;3.08;;;1.80;;
23617;SDS011;18207;32.078;34.818;2022-11-20T11:11:26;3.60;;;1.58;;
23617;SDS011;18207;32.078;34.818;2022-11-20T11:14:06;2.60;;;1.52;;
23617;SDS011;18207;32.078;34.818;2022-11-20T11:16:48;3.72;;;1.90;;
23617;SDS011;18207;32.078;34.818;2022-11-20T11:19:21;4.88;;;1.80;;
23617;SDS011;18207;32.078;34.818;2022-11-20T11:21:53;3.53;;;1.60;;
23617;SDS011;18207;32.078;34.818;2022-11-20T11:24:27;2.97;;;1.50;;
23617;SDS011;18207;32.078;34.818;2022-11-20T11:27:10;6.32;;;1.90;;
23617;SDS011;18207;32.078;34.818;2022-11-20T11:29:47;2.42;;;1.50;;
23617;SDS011;18207;32.078;34.818;2022-11-20T11:32:19;4.13;;;1.58;;
23617;SDS011;18207;32.078;34.818;2022-11-20T11:34:59;4.65;;;1.85;;
23617;SDS011;18207;32.078;34.818;2022-11-20T11:37:32;2.67;;;1.60;;
23617;SDS011;18207;32.078;34.818;2022-11-20T11:40:08;1.50;;;1.40;;
23617;SDS011;18207;32.078;34.818;2022-11-20T11:42:52;2.05;;;1.23;;
23617;SDS011;18207;32.078;34.818;2022-11-20T11:45:27;1.83;;;1.40;;
23617;SDS011;18207;32.078;34.818;2022-11-20T11:47:56;3.25;;;1.40;;
23617;SDS011;18207;32.078;34.818;2022-11-20T11:50:32;2.50;;;1.30;;
23617;SDS011;18207;32.078;34.818;2022-11-20T11:53:07;2.17;;;1.42;;
23617;SDS011;18207;32.078;34.818;2022-11-20T11:55:46;3.22;;;1.42;;
23617;SDS011;18207;32.078;34.818;2022-11-20T11:58:34;3.80;;;1.73;;
23617;SDS011;18207;32.078;34.818;2022-11-20T12:01:21;2.85;;;1.67;;
23617;SDS011;18207;32.078;34.818;2022-11-20T12:04:04;2.30;;;1.38;;
23617;SDS011;18207;32.078;34.818;2022-11-20T12:06:48;2.33;;;1.48;;
23617;SDS011;18207;32.078;34.818;2022-11-20T12:09:51;2.30;;;1.55;;
23617;SDS011;18207;32.078;34.818;2022-11-20T12:12:29;1.75;;;1.25;;
23617;SDS011;18207;32.078;34.818;2022-11-20T12:15:09;2.67;;;1.20;;
23617;SDS011;18207;32.078;34.818;2022-11-20T12:17:52;1.70;;;1.50;;
23617;SDS011;18207;32.078;34.818;2022-11-20T12:20:24;2.42;;;1.30;;
23617;SDS011;18207;32.078;34.818;2022-11-20T12:23:05;1.60;;;1.50;;
23617;SDS011;18207;32.078;34.818;2022-11-20T12:25:47;1.55;;;1.45;;
23617;SDS011;18207;32.078;34.818;2022-11-20T12:31:42;2.00;;;1.42;;
23617;SDS011;18207;32.078;34.818;2022-11-20T12:34:41;1.95;;;1.13;;
23617;SDS011;18207;32.078;34.818;2022-11-20T12:37:30;2.85;;;1.55;;
23617;SDS011;18207;32.078;34.818;2022-11-20T12:40:33;1.90;;;1.33;;
23617;SDS011;18207;32.078;34.818;2022-11-20T12:43:15;1.98;;;1.55;;
23617;SDS011;18207;32.078;34.818;2022-11-20T12:49:13;1.80;;;1.50;;
23617;SDS011;18207;32.078;34.818;2022-11-20T12:52:24;2.45;;;1.42;;
23617;SDS011;18207;32.078;34.818;2022-11-20T12:55:16;1.52;;;1.42;;
23617;SDS011;18207;32.078;34.818;2022-11-20T12:58:04;2.05;;;1.40;;
23617;SDS011;18207;32.078;34.818;2022-11-20T13:00:48;2.13;;;1.70;;
23617;SDS011;18207;32.078;34.818;2022-11-20T13:03:36;3.70;;;1.70;;
23617;SDS011;18207;32.078;34.818;2022-11-20T13:06:15;1.85;;;1.73;;
23617;SDS011;18207;32.078;34.818;2022-11-20T13:08:48;2.38;;;1.50;;
23617;SDS011;18207;32.078;34.818;2022-11-20T13:11:24;1.45;;;1.40;;
23617;SDS011;18207;32.078;34.818;2022-11-20T13:14:13;1.45;;;1.35;;
23617;SDS011;18207;32.078;34.818;2022-11-20T13:17:04;2.50;;;1.35;;
23617;SDS011;18207;32.078;34.818;2022-11-20T13:19:47;1.42;;;1.33;;
23617;SDS011;18207;32.078;34.818;2022-11-20T13:22:27;2.20;;;1.60;;
23617;SDS011;18207;32.078;34.818;2022-11-20T13:25:21;1.92;;;1.60;;
23617;SDS011;18207;32.078;34.818;2022-11-20T13:27:53;1.63;;;1.52;;
23617;SDS011;18207;32.078;34.818;2022-11-20T13:30:25;1.80;;;1.38;;
23617;SDS011;18207;32.078;34.818;2022-11-20T13:32:58;1.52;;;1.20;;
23617;SDS011;18207;32.078;34.818;2022-11-20T13:35:40;1.50;;;1.30;;
23617;SDS011;18207;32.078;34.818;2022-11-20T13:38:13;1.50;;;1.40;;
23617;SDS011;18207;32.078;34.818;2022-11-20T13:40:50;1.77;;;1.33;;
23617;SDS011;18207;32.078;34.818;2022-11-20T13:43:27;1.55;;;1.40;;
23617;SDS011;18207;32.078;34.818;2022-11-20T13:46:06;1.30;;;1.15;;
23617;SDS011;18207;32.078;34.818;2022-11-20T13:48:42;1.83;;;1.42;;
23617;SDS011;18207;32.078;34.818;2022-11-20T13:51:21;2.55;;;1.40;;
23617;SDS011;18207;32.078;34.818;2022-11-20T13:57:35;2.40;;;1.30;;
23617;SDS011;18207;32.078;34.818;2022-11-20T14:00:45;1.63;;;1.50;;
23617;SDS011;18207;32.078;34.818;2022-11-20T14:03:26;1.52;;;1.40;;
23617;SDS011;18207;32.078;34.818;2022-11-20T14:06:25;2.65;;;1.40;;
23617;SDS011;18207;32.078;34.818;2022-11-20T14:08:59;1.35;;;1.25;;
23617;SDS011;18207;32.078;34.818;2022-11-20T14:11:30;1.98;;;1.30;;
23617;SDS011;18207;32.078;34.818;2022-11-20T14:14:02;2.28;;;1.38;;
23617;SDS011;18207;32.078;34.818;2022-11-20T14:16:43;1.48;;;1.13;;
23617;SDS011;18207;32.078;34.818;2022-11-20T14:19:23;1.48;;;1.15;;
23617;SDS011;18207;32.078;34.818;2022-11-20T14:22:10;1.35;;;1.25;;
23617;SDS011;18207;32.078;34.818;2022-11-20T14:24:48;1.45;;;1.25;;
23617;SDS011;18207;32.078;34.818;2022-11-20T14:27:33;2.17;;;1.35;;
23617;SDS011;18207;32.078;34.818;2022-11-20T14:30:11;1.85;;;1.40;;
23617;SDS011;18207;32.078;34.818;2022-11-20T14:32:45;2.22;;;1.50;;
23617;SDS011;18207;32.078;34.818;2022-11-20T14:35:18;1.58;;;1.35;;
23617;SDS011;18207;32.078;34.818;2022-11-20T14:37:56;1.75;;;1.30;;
23617;SDS011;18207;32.078;34.818;2022-11-20T14:40:28;1.30;;;1.05;;
23617;SDS011;18207;32.078;34.818;2022-11-20T14:43:06;3.53;;;1.40;;
23617;SDS011;18207;32.078;34.818;2022-11-20T14:45:55;1.48;;;1.23;;
23617;SDS011;18207;32.078;34.818;2022-11-20T14:48:30;2.22;;;0.93;;
23617;SDS011;18207;32.078;34.818;2022-11-20T14:51:08;1.27;;;1.00;;
23617;SDS011;18207;32.078;34.818;2022-11-20T14:53:42;1.85;;;1.40;;
23617;SDS011;18207;32.078;34.818;2022-11-20T14:56:12;2.72;;;1.23;;
23617;SDS011;18207;32.078;34.818;2022-11-20T14:58:55;1.50;;;1.35;;
23617;SDS011;18207;32.078;34.818;2022-11-20T15:01:27;1.20;;;1.10;;
23617;SDS011;18207;32.078;34.818;2022-11-20T15:04:00;2.60;;;1.00;;
23617;SDS011;18207;32.078;34.818;2022-11-20T15:06:36;2.10;;;1.30;;
23617;SDS011;18207;32.078;34.818;2022-11-20T15:09:13;2.35;;;1.10;;
23617;SDS011;18207;32.078;34.818;2022-11-20T15:11:51;1.98;;;1.05;;
23617;SDS011;18207;32.078;34.818;2022-11-20T15:14:26;1.33;;;1.23;;
23617;SDS011;18207;32.078;34.818;2022-11-20T15:16:59;1.75;;;1.20;;
23617;SDS011;18207;32.078;34.818;2022-11-20T15:19:30;3.13;;;1.42;;
23617;SDS011;18207;32.078;34.818;2022-11-20T15:22:01;2.33;;;1.40;;
23617;SDS011;18207;32.078;34.818;2022-11-20T15:24:33;1.92;;;1.17;;
23617;SDS011;18207;32.078;34.818;2022-11-20T15:27:04;1.48;;;1.30;;
23617;SDS011;18207;32.078;34.818;2022-11-20T15:29:35;1.40;;;1.30;;
23617;SDS011;18207;32.078;34.818;2022-11-20T15:32:05;3.53;;;1.58;;
23617;SDS011;18207;32.078;34.818;2022-11-20T15:34:39;1.60;;;1.45;;
23617;SDS011;18207;32.078;34.818;2022-11-20T15:37:10;1.38;;;1.27;;
23617;SDS011;18207;32.078;34.818;2022-11-20T15:39:42;2.10;;;1.33;;